Terminal Aerodrome Forecast
Issued by NWS

Current Version | Previous Version | Text Only | Print | Product List | Glossary Off
Versions: 1 2 3 4 5 6 7 8 9 10 11 12 13 14 15 16 17 18

279
FTUS41 KPBZ 241125
TAFHLG
TAF
KHLG 241125Z 2412/2512 16003KT P6SM SCT250
     FM241500 22004KT P6SM SCT040
     FM242000 24006KT P6SM VCTS SCT040CB
     FM250600 21003KT P6SM BKN040=

USA.gov is the U.S. government's official web portal to all federal, state and local government web resources and services.